sensor_id;sensor_type;location;lat;lon;timestamp;temperature;humidity
909;DHT22;441;51.192;6.788;2022-09-09T00:01:46;24.30;92.90
909;DHT22;441;51.192;6.788;2022-09-09T00:04:25;24.30;93.00
909;DHT22;441;51.192;6.788;2022-09-09T00:06:59;24.30;93.10
909;DHT22;441;51.192;6.788;2022-09-09T00:09:30;24.30;93.10
909;DHT22;441;51.192;6.788;2022-09-09T00:12:02;24.30;93.20
909;DHT22;441;51.192;6.788;2022-09-09T00:14:37;24.30;93.40
909;DHT22;441;51.192;6.788;2022-09-09T00:17:11;24.30;93.30
909;DHT22;441;51.192;6.788;2022-09-09T00:19:44;24.30;93.60
909;DHT22;441;51.192;6.788;2022-09-09T00:22:17;24.30;93.60
909;DHT22;441;51.192;6.788;2022-09-09T00:24:46;24.20;93.50
909;DHT22;441;51.192;6.788;2022-09-09T00:27:22;24.30;93.60
909;DHT22;441;51.192;6.788;2022-09-09T00:29:53;24.30;93.70
909;DHT22;441;51.192;6.788;2022-09-09T00:32:21;24.20;93.60
909;DHT22;441;51.192;6.788;2022-09-09T00:34:55;24.30;93.50
909;DHT22;441;51.192;6.788;2022-09-09T00:37:24;24.20;93.70
909;DHT22;441;51.192;6.788;2022-09-09T00:39:55;24.30;93.80
909;DHT22;441;51.192;6.788;2022-09-09T00:42:25;24.20;93.80
909;DHT22;441;51.192;6.788;2022-09-09T00:44:59;24.20;93.80
909;DHT22;441;51.192;6.788;2022-09-09T00:47:40;24.30;93.90
909;DHT22;441;51.192;6.788;2022-09-09T00:50:26;24.20;93.90
909;DHT22;441;51.192;6.788;2022-09-09T00:53:05;24.20;94.10
909;DHT22;441;51.192;6.788;2022-09-09T00:55:39;24.20;94.10
909;DHT22;441;51.192;6.788;2022-09-09T00:58:08;24.20;94.30
909;DHT22;441;51.192;6.788;2022-09-09T01:00:40;24.20;94.70
909;DHT22;441;51.192;6.788;2022-09-09T01:03:19;24.20;94.90
909;DHT22;441;51.192;6.788;2022-09-09T01:05:59;24.20;94.90
909;DHT22;441;51.192;6.788;2022-09-09T01:08:39;24.20;94.70
909;DHT22;441;51.192;6.788;2022-09-09T01:11:15;24.20;94.80
909;DHT22;441;51.192;6.788;2022-09-09T01:13:45;24.20;95.20
909;DHT22;441;51.192;6.788;2022-09-09T01:16:17;24.20;95.00
909;DHT22;441;51.192;6.788;2022-09-09T01:18:46;24.20;95.00
909;DHT22;441;51.192;6.788;2022-09-09T01:21:24;24.20;94.90
909;DHT22;441;51.192;6.788;2022-09-09T01:24:16;24.20;95.00
909;DHT22;441;51.192;6.788;2022-09-09T01:26:49;24.20;95.10
909;DHT22;441;51.192;6.788;2022-09-09T01:29:18;24.20;95.20
909;DHT22;441;51.192;6.788;2022-09-09T01:31:53;24.20;95.00
909;DHT22;441;51.192;6.788;2022-09-09T01:34:22;24.20;95.40
909;DHT22;441;51.192;6.788;2022-09-09T01:36:53;24.10;95.30
909;DHT22;441;51.192;6.788;2022-09-09T01:39:22;24.10;95.40
909;DHT22;441;51.192;6.788;2022-09-09T01:41:51;24.10;95.50
909;DHT22;441;51.192;6.788;2022-09-09T01:44:19;24.10;95.50
909;DHT22;441;51.192;6.788;2022-09-09T01:46:46;24.10;95.30
909;DHT22;441;51.192;6.788;2022-09-09T01:49:13;24.10;95.50
909;DHT22;441;51.192;6.788;2022-09-09T01:51:41;24.10;95.50
909;DHT22;441;51.192;6.788;2022-09-09T01:54:10;24.10;95.60
909;DHT22;441;51.192;6.788;2022-09-09T01:56:47;24.10;95.40
909;DHT22;441;51.192;6.788;2022-09-09T01:59:27;24.10;95.20
909;DHT22;441;51.192;6.788;2022-09-09T02:02:08;24.10;95.10
909;DHT22;441;51.192;6.788;2022-09-09T02:04:38;24.10;95.20
909;DHT22;441;51.192;6.788;2022-09-09T02:07:15;24.10;95.10
909;DHT22;441;51.192;6.788;2022-09-09T02:09:47;24.10;95.10
909;DHT22;441;51.192;6.788;2022-09-09T02:12:19;24.10;95.20
909;DHT22;441;51.192;6.788;2022-09-09T02:14:56;24.10;95.60
909;DHT22;441;51.192;6.788;2022-09-09T02:17:27;24.10;95.40
909;DHT22;441;51.192;6.788;2022-09-09T02:20:00;24.10;95.60
909;DHT22;441;51.192;6.788;2022-09-09T02:22:30;24.10;95.60
909;DHT22;441;51.192;6.788;2022-09-09T02:25:00;24.00;95.60
909;DHT22;441;51.192;6.788;2022-09-09T02:27:27;24.00;95.80
909;DHT22;441;51.192;6.788;2022-09-09T02:29:57;24.00;95.90
909;DHT22;441;51.192;6.788;2022-09-09T02:32:28;24.00;95.90
909;DHT22;441;51.192;6.788;2022-09-09T02:35:00;24.00;95.90
909;DHT22;441;51.192;6.788;2022-09-09T02:37:31;24.00;95.80
909;DHT22;441;51.192;6.788;2022-09-09T02:39:58;24.00;95.80
909;DHT22;441;51.192;6.788;2022-09-09T02:42:25;24.00;95.80
909;DHT22;441;51.192;6.788;2022-09-09T02:44:52;24.00;95.80
909;DHT22;441;51.192;6.788;2022-09-09T02:47:30;24.00;95.60
909;DHT22;441;51.192;6.788;2022-09-09T02:50:08;23.90;95.40
909;DHT22;441;51.192;6.788;2022-09-09T02:52:44;23.90;95.30
909;DHT22;441;51.192;6.788;2022-09-09T02:55:18;23.90;95.30
909;DHT22;441;51.192;6.788;2022-09-09T02:57:47;23.90;95.40
909;DHT22;441;51.192;6.788;2022-09-09T03:00:15;23.90;95.10
909;DHT22;441;51.192;6.788;2022-09-09T03:02:43;23.90;95.50
909;DHT22;441;51.192;6.788;2022-09-09T03:05:10;23.90;95.20
909;DHT22;441;51.192;6.788;2022-09-09T03:07:38;23.90;95.10
909;DHT22;441;51.192;6.788;2022-09-09T03:10:06;23.90;95.10
909;DHT22;441;51.192;6.788;2022-09-09T03:12:36;23.90;95.10
909;DHT22;441;51.192;6.788;2022-09-09T03:15:03;23.90;94.90
909;DHT22;441;51.192;6.788;2022-09-09T03:17:30;23.90;94.80
909;DHT22;441;51.192;6.788;2022-09-09T03:19:58;23.80;94.80
909;DHT22;441;51.192;6.788;2022-09-09T03:22:25;23.90;94.80
909;DHT22;441;51.192;6.788;2022-09-09T03:24:52;23.80;94.70
909;DHT22;441;51.192;6.788;2022-09-09T03:27:19;23.80;94.70
909;DHT22;441;51.192;6.788;2022-09-09T03:29:46;23.90;94.70
909;DHT22;441;51.192;6.788;2022-09-09T03:32:16;23.80;94.50
909;DHT22;441;51.192;6.788;2022-09-09T03:34:43;23.80;94.60
909;DHT22;441;51.192;6.788;2022-09-09T03:37:14;23.80;94.60
909;DHT22;441;51.192;6.788;2022-09-09T03:39:41;23.80;94.70
909;DHT22;441;51.192;6.788;2022-09-09T03:42:08;23.80;94.60
909;DHT22;441;51.192;6.788;2022-09-09T03:44:34;23.80;94.80
909;DHT22;441;51.192;6.788;2022-09-09T03:47:01;23.80;94.80
909;DHT22;441;51.192;6.788;2022-09-09T03:49:28;23.80;94.90
909;DHT22;441;51.192;6.788;2022-09-09T03:51:55;23.80;94.90
909;DHT22;441;51.192;6.788;2022-09-09T03:54:25;23.80;94.80
909;DHT22;441;51.192;6.788;2022-09-09T03:56:52;23.80;94.90
909;DHT22;441;51.192;6.788;2022-09-09T03:59:19;23.80;94.80
909;DHT22;441;51.192;6.788;2022-09-09T04:01:48;23.80;94.80
909;DHT22;441;51.192;6.788;2022-09-09T04:04:15;23.80;94.80
909;DHT22;441;51.192;6.788;2022-09-09T04:06:42;23.80;94.80
909;DHT22;441;51.192;6.788;2022-09-09T04:09:08;23.70;94.80
909;DHT22;441;51.192;6.788;2022-09-09T04:11:37;23.80;94.80
909;DHT22;441;51.192;6.788;2022-09-09T04:14:04;23.70;94.90
909;DHT22;441;51.192;6.788;2022-09-09T04:16:31;23.70;94.80
909;DHT22;441;51.192;6.788;2022-09-09T04:18:58;23.80;95.00
909;DHT22;441;51.192;6.788;2022-09-09T04:21:26;23.70;94.80
909;DHT22;441;51.192;6.788;2022-09-09T04:23:53;23.70;94.80
909;DHT22;441;51.192;6.788;2022-09-09T04:26:20;23.70;94.80
909;DHT22;441;51.192;6.788;2022-09-09T04:28:48;23.70;94.80
909;DHT22;441;51.192;6.788;2022-09-09T04:31:17;23.70;95.10
909;DHT22;441;51.192;6.788;2022-09-09T04:33:45;23.70;94.90
909;DHT22;441;51.192;6.788;2022-09-09T04:36:13;23.70;95.20
909;DHT22;441;51.192;6.788;2022-09-09T04:38:40;23.70;95.50
909;DHT22;441;51.192;6.788;2022-09-09T04:41:07;23.70;95.80
909;DHT22;441;51.192;6.788;2022-09-09T04:43:36;23.70;96.40
909;DHT22;441;51.192;6.788;2022-09-09T04:46:05;23.80;96.70
909;DHT22;441;51.192;6.788;2022-09-09T04:48:32;23.80;96.40
909;DHT22;441;51.192;6.788;2022-09-09T04:51:01;23.80;96.40
909;DHT22;441;51.192;6.788;2022-09-09T04:53:29;23.80;96.30
909;DHT22;441;51.192;6.788;2022-09-09T04:56:03;23.80;96.10
909;DHT22;441;51.192;6.788;2022-09-09T04:58:30;23.80;95.90
909;DHT22;441;51.192;6.788;2022-09-09T05:01:05;23.80;95.90
909;DHT22;441;51.192;6.788;2022-09-09T05:03:32;23.80;95.70
909;DHT22;441;51.192;6.788;2022-09-09T05:06:06;23.80;95.90
909;DHT22;441;51.192;6.788;2022-09-09T05:08:33;23.80;95.70
909;DHT22;441;51.192;6.788;2022-09-09T05:11:00;23.80;95.60
909;DHT22;441;51.192;6.788;2022-09-09T05:13:28;23.80;95.60
909;DHT22;441;51.192;6.788;2022-09-09T05:15:57;23.80;95.60
909;DHT22;441;51.192;6.788;2022-09-09T05:18:26;23.90;95.50
909;DHT22;441;51.192;6.788;2022-09-09T05:20:52;23.80;95.40
909;DHT22;441;51.192;6.788;2022-09-09T05:23:24;23.80;95.30
909;DHT22;441;51.192;6.788;2022-09-09T05:25:55;23.80;95.70
909;DHT22;441;51.192;6.788;2022-09-09T05:28:23;23.80;95.30
909;DHT22;441;51.192;6.788;2022-09-09T05:30:58;23.80;95.30
909;DHT22;441;51.192;6.788;2022-09-09T05:33:27;23.80;95.20
909;DHT22;441;51.192;6.788;2022-09-09T05:35:57;23.80;95.50
909;DHT22;441;51.192;6.788;2022-09-09T05:38:24;23.80;95.10
909;DHT22;441;51.192;6.788;2022-09-09T05:40:52;23.80;95.20
909;DHT22;441;51.192;6.788;2022-09-09T05:43:19;23.80;95.50
909;DHT22;441;51.192;6.788;2022-09-09T05:45:46;23.80;95.20
909;DHT22;441;51.192;6.788;2022-09-09T05:48:14;23.80;95.10
909;DHT22;441;51.192;6.788;2022-09-09T05:50:43;23.80;95.00
909;DHT22;441;51.192;6.788;2022-09-09T05:53:10;23.80;95.00
909;DHT22;441;51.192;6.788;2022-09-09T05:55:37;23.80;95.00
909;DHT22;441;51.192;6.788;2022-09-09T05:58:04;23.80;95.10
909;DHT22;441;51.192;6.788;2022-09-09T06:00:31;23.80;95.10
909;DHT22;441;51.192;6.788;2022-09-09T06:02:58;23.70;95.40
909;DHT22;441;51.192;6.788;2022-09-09T06:05:25;23.80;95.70
909;DHT22;441;51.192;6.788;2022-09-09T06:07:54;23.70;95.20
909;DHT22;441;51.192;6.788;2022-09-09T06:10:21;23.70;95.20
909;DHT22;441;51.192;6.788;2022-09-09T06:12:48;23.70;95.30
909;DHT22;441;51.192;6.788;2022-09-09T06:15:15;23.70;95.30
909;DHT22;441;51.192;6.788;2022-09-09T06:17:42;23.70;95.30
909;DHT22;441;51.192;6.788;2022-09-09T06:20:11;23.70;95.20
909;DHT22;441;51.192;6.788;2022-09-09T06:22:39;23.70;95.20
909;DHT22;441;51.192;6.788;2022-09-09T06:25:09;23.70;95.20
909;DHT22;441;51.192;6.788;2022-09-09T06:27:36;23.70;95.00
909;DHT22;441;51.192;6.788;2022-09-09T06:30:03;23.60;95.10
909;DHT22;441;51.192;6.788;2022-09-09T06:32:30;23.70;95.10
909;DHT22;441;51.192;6.788;2022-09-09T06:35:02;23.60;94.90
909;DHT22;441;51.192;6.788;2022-09-09T06:37:29;23.60;95.00
909;DHT22;441;51.192;6.788;2022-09-09T06:39:56;23.60;94.90
909;DHT22;441;51.192;6.788;2022-09-09T06:42:24;23.60;94.80
909;DHT22;441;51.192;6.788;2022-09-09T06:44:51;23.60;95.00
909;DHT22;441;51.192;6.788;2022-09-09T06:47:18;23.60;94.70
909;DHT22;441;51.192;6.788;2022-09-09T06:49:45;23.60;94.80
909;DHT22;441;51.192;6.788;2022-09-09T06:52:12;23.60;94.70
909;DHT22;441;51.192;6.788;2022-09-09T06:54:39;23.60;94.60
909;DHT22;441;51.192;6.788;2022-09-09T06:57:06;23.50;94.50
909;DHT22;441;51.192;6.788;2022-09-09T06:59:34;23.50;94.50
909;DHT22;441;51.192;6.788;2022-09-09T07:02:01;23.50;94.50
909;DHT22;441;51.192;6.788;2022-09-09T07:04:28;23.50;94.20
909;DHT22;441;51.192;6.788;2022-09-09T07:06:55;23.50;94.10
909;DHT22;441;51.192;6.788;2022-09-09T07:09:22;23.50;94.00
909;DHT22;441;51.192;6.788;2022-09-09T07:11:51;23.60;94.00
909;DHT22;441;51.192;6.788;2022-09-09T07:14:18;23.50;93.90
909;DHT22;441;51.192;6.788;2022-09-09T07:16:47;23.50;93.80
909;DHT22;441;51.192;6.788;2022-09-09T07:19:14;23.50;93.80
909;DHT22;441;51.192;6.788;2022-09-09T07:21:42;23.50;93.60
909;DHT22;441;51.192;6.788;2022-09-09T07:24:09;23.50;93.50
909;DHT22;441;51.192;6.788;2022-09-09T07:26:37;23.50;93.70
909;DHT22;441;51.192;6.788;2022-09-09T07:29:04;23.50;93.50
909;DHT22;441;51.192;6.788;2022-09-09T07:31:33;23.50;93.50
909;DHT22;441;51.192;6.788;2022-09-09T07:34:03;23.50;93.40
909;DHT22;441;51.192;6.788;2022-09-09T07:36:32;23.50;93.40
909;DHT22;441;51.192;6.788;2022-09-09T07:39:00;23.50;93.40
909;DHT22;441;51.192;6.788;2022-09-09T07:41:30;23.40;93.20
909;DHT22;441;51.192;6.788;2022-09-09T07:44:03;23.50;93.20
909;DHT22;441;51.192;6.788;2022-09-09T07:46:30;23.50;93.10
909;DHT22;441;51.192;6.788;2022-09-09T07:48:57;23.40;92.80
909;DHT22;441;51.192;6.788;2022-09-09T07:51:27;23.40;92.70
909;DHT22;441;51.192;6.788;2022-09-09T07:53:56;23.40;92.40
909;DHT22;441;51.192;6.788;2022-09-09T07:56:25;23.40;92.50
909;DHT22;441;51.192;6.788;2022-09-09T07:58:53;23.40;92.10
909;DHT22;441;51.192;6.788;2022-09-09T08:01:22;23.40;91.80
909;DHT22;441;51.192;6.788;2022-09-09T08:03:54;23.30;91.10
909;DHT22;441;51.192;6.788;2022-09-09T08:06:26;23.40;91.30
909;DHT22;441;51.192;6.788;2022-09-09T08:08:54;23.40;91.20
909;DHT22;441;51.192;6.788;2022-09-09T08:11:22;23.40;91.20
909;DHT22;441;51.192;6.788;2022-09-09T08:13:51;23.40;91.10
909;DHT22;441;51.192;6.788;2022-09-09T08:16:19;23.40;90.90
909;DHT22;441;51.192;6.788;2022-09-09T08:18:47;23.40;90.50
909;DHT22;441;51.192;6.788;2022-09-09T08:21:16;23.40;90.30
909;DHT22;441;51.192;6.788;2022-09-09T08:23:46;23.40;90.60
909;DHT22;441;51.192;6.788;2022-09-09T08:26:15;23.40;90.30
909;DHT22;441;51.192;6.788;2022-09-09T08:28:42;23.30;89.40
909;DHT22;441;51.192;6.788;2022-09-09T08:31:11;23.30;89.60
909;DHT22;441;51.192;6.788;2022-09-09T08:33:39;23.40;90.10
909;DHT22;441;51.192;6.788;2022-09-09T08:36:09;23.40;89.20
909;DHT22;441;51.192;6.788;2022-09-09T08:38:36;23.40;88.70
909;DHT22;441;51.192;6.788;2022-09-09T08:41:30;23.30;88.00
909;DHT22;441;51.192;6.788;2022-09-09T08:44:03;23.30;88.10
909;DHT22;441;51.192;6.788;2022-09-09T08:46:38;23.40;88.10
909;DHT22;441;51.192;6.788;2022-09-09T08:49:17;23.30;87.70
909;DHT22;441;51.192;6.788;2022-09-09T08:51:46;23.30;86.80
909;DHT22;441;51.192;6.788;2022-09-09T08:54:15;23.30;86.20
909;DHT22;441;51.192;6.788;2022-09-09T08:56:43;23.30;85.90
909;DHT22;441;51.192;6.788;2022-09-09T08:59:14;23.30;86.10
909;DHT22;441;51.192;6.788;2022-09-09T09:01:55;23.30;84.70
909;DHT22;441;51.192;6.788;2022-09-09T09:04:52;23.30;84.70
909;DHT22;441;51.192;6.788;2022-09-09T09:07:31;23.30;84.60
909;DHT22;441;51.192;6.788;2022-09-09T09:10:04;23.30;84.30
909;DHT22;441;51.192;6.788;2022-09-09T09:12:40;23.30;84.60
909;DHT22;441;51.192;6.788;2022-09-09T09:15:14;23.30;84.60
909;DHT22;441;51.192;6.788;2022-09-09T09:17:42;23.30;84.70
909;DHT22;441;51.192;6.788;2022-09-09T09:20:12;23.30;84.80
909;DHT22;441;51.192;6.788;2022-09-09T09:22:48;23.30;84.50
909;DHT22;441;51.192;6.788;2022-09-09T09:25:18;23.30;84.50
909;DHT22;441;51.192;6.788;2022-09-09T09:27:52;23.30;84.60
909;DHT22;441;51.192;6.788;2022-09-09T09:30:26;23.30;83.70
909;DHT22;441;51.192;6.788;2022-09-09T09:32:59;23.30;83.50
909;DHT22;441;51.192;6.788;2022-09-09T09:35:28;23.30;83.40
909;DHT22;441;51.192;6.788;2022-09-09T09:37:55;23.30;83.10
909;DHT22;441;51.192;6.788;2022-09-09T09:40:22;23.30;82.50
909;DHT22;441;51.192;6.788;2022-09-09T09:42:54;23.30;83.10
909;DHT22;441;51.192;6.788;2022-09-09T09:45:31;23.30;83.50
909;DHT22;441;51.192;6.788;2022-09-09T09:48:00;23.30;83.20
909;DHT22;441;51.192;6.788;2022-09-09T09:50:28;23.30;82.80
909;DHT22;441;51.192;6.788;2022-09-09T09:52:56;23.30;82.20
909;DHT22;441;51.192;6.788;2022-09-09T09:55:23;23.30;81.80
909;DHT22;441;51.192;6.788;2022-09-09T09:57:52;23.30;81.00
909;DHT22;441;51.192;6.788;2022-09-09T10:00:21;23.30;81.10
909;DHT22;441;51.192;6.788;2022-09-09T10:02:49;23.30;80.70
909;DHT22;441;51.192;6.788;2022-09-09T10:05:20;23.30;81.60
909;DHT22;441;51.192;6.788;2022-09-09T10:07:59;23.30;82.00
909;DHT22;441;51.192;6.788;2022-09-09T10:10:35;23.30;81.10
909;DHT22;441;51.192;6.788;2022-09-09T10:13:09;23.30;80.30
909;DHT22;441;51.192;6.788;2022-09-09T10:15:44;23.30;80.70
909;DHT22;441;51.192;6.788;2022-09-09T10:18:29;23.30;80.50
909;DHT22;441;51.192;6.788;2022-09-09T10:21:09;23.40;80.30
909;DHT22;441;51.192;6.788;2022-09-09T10:23:56;23.40;80.20
909;DHT22;441;51.192;6.788;2022-09-09T10:26:35;23.40;80.90
909;DHT22;441;51.192;6.788;2022-09-09T10:29:23;23.40;80.50
909;DHT22;441;51.192;6.788;2022-09-09T10:32:03;23.40;81.10
909;DHT22;441;51.192;6.788;2022-09-09T10:34:55;23.50;81.30
909;DHT22;441;51.192;6.788;2022-09-09T10:37:34;23.50;81.20
909;DHT22;441;51.192;6.788;2022-09-09T10:40:20;23.50;81.10
909;DHT22;441;51.192;6.788;2022-09-09T10:42:50;23.50;81.00
909;DHT22;441;51.192;6.788;2022-09-09T10:45:21;23.50;80.90
909;DHT22;441;51.192;6.788;2022-09-09T10:48:07;23.50;80.90
909;DHT22;441;51.192;6.788;2022-09-09T10:50:49;23.50;80.60
909;DHT22;441;51.192;6.788;2022-09-09T10:53:25;23.50;80.20
909;DHT22;441;51.192;6.788;2022-09-09T10:55:56;23.50;80.40
909;DHT22;441;51.192;6.788;2022-09-09T10:58:28;23.50;80.40
909;DHT22;441;51.192;6.788;2022-09-09T11:01:02;23.50;80.30
909;DHT22;441;51.192;6.788;2022-09-09T11:03:34;23.50;80.50
909;DHT22;441;51.192;6.788;2022-09-09T11:06:04;23.50;80.70
909;DHT22;441;51.192;6.788;2022-09-09T11:08:35;23.50;80.50
909;DHT22;441;51.192;6.788;2022-09-09T11:11:03;23.50;80.50
909;DHT22;441;51.192;6.788;2022-09-09T11:13:38;23.50;79.70
909;DHT22;441;51.192;6.788;2022-09-09T11:16:17;23.50;79.80
909;DHT22;441;51.192;6.788;2022-09-09T11:18:46;23.40;79.40
909;DHT22;441;51.192;6.788;2022-09-09T11:21:18;23.40;79.30
909;DHT22;441;51.192;6.788;2022-09-09T11:23:51;23.40;79.70
909;DHT22;441;51.192;6.788;2022-09-09T11:26:26;23.40;80.40
909;DHT22;441;51.192;6.788;2022-09-09T11:29:06;23.40;81.60
909;DHT22;441;51.192;6.788;2022-09-09T11:31:44;23.40;83.00
909;DHT22;441;51.192;6.788;2022-09-09T11:34:22;23.40;84.50
909;DHT22;441;51.192;6.788;2022-09-09T11:37:17;23.40;84.10
909;DHT22;441;51.192;6.788;2022-09-09T11:42:40;23.40;84.40
909;DHT22;441;51.192;6.788;2022-09-09T11:45:20;23.40;84.60
909;DHT22;441;51.192;6.788;2022-09-09T11:47:55;23.40;85.30
909;DHT22;441;51.192;6.788;2022-09-09T11:50:34;23.40;84.50
909;DHT22;441;51.192;6.788;2022-09-09T11:53:19;23.40;84.80
909;DHT22;441;51.192;6.788;2022-09-09T11:55:48;23.40;84.70
909;DHT22;441;51.192;6.788;2022-09-09T11:58:26;23.40;84.50
909;DHT22;441;51.192;6.788;2022-09-09T12:00:54;23.40;84.50
909;DHT22;441;51.192;6.788;2022-09-09T12:03:40;23.40;84.30
909;DHT22;441;51.192;6.788;2022-09-09T12:06:12;23.40;83.70
909;DHT22;441;51.192;6.788;2022-09-09T12:08:43;23.40;83.70
909;DHT22;441;51.192;6.788;2022-09-09T12:11:10;23.40;83.60
909;DHT22;441;51.192;6.788;2022-09-09T12:13:38;23.40;83.80
909;DHT22;441;51.192;6.788;2022-09-09T12:16:29;23.40;83.60
909;DHT22;441;51.192;6.788;2022-09-09T12:19:06;23.40;83.70
909;DHT22;441;51.192;6.788;2022-09-09T12:21:39;23.40;83.80
909;DHT22;441;51.192;6.788;2022-09-09T12:24:10;23.40;83.90
909;DHT22;441;51.192;6.788;2022-09-09T12:26:40;23.50;84.00
909;DHT22;441;51.192;6.788;2022-09-09T12:29:16;23.40;83.90
909;DHT22;441;51.192;6.788;2022-09-09T12:31:51;23.40;83.60
909;DHT22;441;51.192;6.788;2022-09-09T12:34:32;23.40;83.40
909;DHT22;441;51.192;6.788;2022-09-09T12:37:05;23.40;83.00
909;DHT22;441;51.192;6.788;2022-09-09T12:39:35;23.40;82.20
909;DHT22;441;51.192;6.788;2022-09-09T12:42:04;23.40;82.00
909;DHT22;441;51.192;6.788;2022-09-09T12:44:31;23.40;81.90
909;DHT22;441;51.192;6.788;2022-09-09T12:47:01;23.40;81.70
909;DHT22;441;51.192;6.788;2022-09-09T12:49:33;23.40;81.80
909;DHT22;441;51.192;6.788;2022-09-09T12:52:03;23.40;82.00
909;DHT22;441;51.192;6.788;2022-09-09T12:54:33;23.40;82.30
909;DHT22;441;51.192;6.788;2022-09-09T12:57:01;23.40;82.40
909;DHT22;441;51.192;6.788;2022-09-09T12:59:36;23.40;82.50
909;DHT22;441;51.192;6.788;2022-09-09T13:02:16;23.40;82.70
909;DHT22;441;51.192;6.788;2022-09-09T13:04:45;23.40;83.40
909;DHT22;441;51.192;6.788;2022-09-09T13:07:13;23.40;84.00
909;DHT22;441;51.192;6.788;2022-09-09T13:09:41;23.40;85.20
909;DHT22;441;51.192;6.788;2022-09-09T13:12:13;23.40;85.80
909;DHT22;441;51.192;6.788;2022-09-09T13:14:43;23.50;86.30
909;DHT22;441;51.192;6.788;2022-09-09T13:17:18;23.50;87.80
909;DHT22;441;51.192;6.788;2022-09-09T13:19:48;23.50;89.40
909;DHT22;441;51.192;6.788;2022-09-09T13:22:21;23.50;90.30
909;DHT22;441;51.192;6.788;2022-09-09T13:24:59;23.50;90.20
909;DHT22;441;51.192;6.788;2022-09-09T13:27:29;23.50;90.50
909;DHT22;441;51.192;6.788;2022-09-09T13:29:56;23.50;90.60
909;DHT22;441;51.192;6.788;2022-09-09T13:32:24;23.50;89.90
909;DHT22;441;51.192;6.788;2022-09-09T13:34:55;23.50;89.60
909;DHT22;441;51.192;6.788;2022-09-09T13:37:26;23.50;90.20
909;DHT22;441;51.192;6.788;2022-09-09T13:39:54;23.50;90.30
909;DHT22;441;51.192;6.788;2022-09-09T13:42:25;23.50;89.90
909;DHT22;441;51.192;6.788;2022-09-09T13:44:53;23.50;90.10
909;DHT22;441;51.192;6.788;2022-09-09T13:47:28;23.50;89.70
909;DHT22;441;51.192;6.788;2022-09-09T13:49:57;23.50;89.60
909;DHT22;441;51.192;6.788;2022-09-09T13:52:26;23.60;90.10
909;DHT22;441;51.192;6.788;2022-09-09T13:54:53;23.50;88.40
909;DHT22;441;51.192;6.788;2022-09-09T13:57:22;23.50;87.80
909;DHT22;441;51.192;6.788;2022-09-09T13:59:51;23.50;88.40
909;DHT22;441;51.192;6.788;2022-09-09T14:02:19;23.50;90.60
909;DHT22;441;51.192;6.788;2022-09-09T14:04:48;23.50;90.40
909;DHT22;441;51.192;6.788;2022-09-09T14:07:18;23.50;90.20
909;DHT22;441;51.192;6.788;2022-09-09T14:09:46;23.60;90.10
909;DHT22;441;51.192;6.788;2022-09-09T14:12:16;23.50;88.70
909;DHT22;441;51.192;6.788;2022-09-09T14:14:43;23.50;88.60
909;DHT22;441;51.192;6.788;2022-09-09T14:17:10;23.60;89.10
909;DHT22;441;51.192;6.788;2022-09-09T14:19:37;23.60;86.50
909;DHT22;441;51.192;6.788;2022-09-09T14:22:04;23.70;85.70
909;DHT22;441;51.192;6.788;2022-09-09T14:24:32;23.70;85.40
909;DHT22;441;51.192;6.788;2022-09-09T14:26:59;23.60;84.90
909;DHT22;441;51.192;6.788;2022-09-09T14:29:26;23.60;86.40
909;DHT22;441;51.192;6.788;2022-09-09T14:31:53;23.60;85.70
909;DHT22;441;51.192;6.788;2022-09-09T14:34:20;23.60;85.90
909;DHT22;441;51.192;6.788;2022-09-09T14:36:47;23.60;86.40
909;DHT22;441;51.192;6.788;2022-09-09T14:39:14;23.60;86.20
909;DHT22;441;51.192;6.788;2022-09-09T14:41:42;23.60;86.40
909;DHT22;441;51.192;6.788;2022-09-09T14:44:08;23.60;84.10
909;DHT22;441;51.192;6.788;2022-09-09T14:46:35;23.60;82.20
909;DHT22;441;51.192;6.788;2022-09-09T14:49:02;23.60;84.40
909;DHT22;441;51.192;6.788;2022-09-09T14:51:30;23.60;86.00
909;DHT22;441;51.192;6.788;2022-09-09T14:53:59;23.50;87.10
909;DHT22;441;51.192;6.788;2022-09-09T14:56:29;23.50;87.70
909;DHT22;441;51.192;6.788;2022-09-09T14:58:58;23.50;88.30
909;DHT22;441;51.192;6.788;2022-09-09T15:01:27;23.50;90.20
909;DHT22;441;51.192;6.788;2022-09-09T15:03:56;23.50;90.90
909;DHT22;441;51.192;6.788;2022-09-09T15:06:24;23.40;91.90
909;DHT22;441;51.192;6.788;2022-09-09T15:08:52;23.40;93.00
909;DHT22;441;51.192;6.788;2022-09-09T15:11:20;23.40;93.10
909;DHT22;441;51.192;6.788;2022-09-09T15:13:51;23.40;93.20
909;DHT22;441;51.192;6.788;2022-09-09T15:16:21;23.50;93.20
909;DHT22;441;51.192;6.788;2022-09-09T15:18:51;23.50;92.80
909;DHT22;441;51.192;6.788;2022-09-09T15:21:21;23.50;93.30
909;DHT22;441;51.192;6.788;2022-09-09T15:23:50;23.60;93.70
909;DHT22;441;51.192;6.788;2022-09-09T15:26:17;23.60;93.80
909;DHT22;441;51.192;6.788;2022-09-09T15:28:45;23.60;93.50
909;DHT22;441;51.192;6.788;2022-09-09T15:31:14;23.60;93.40
909;DHT22;441;51.192;6.788;2022-09-09T15:33:48;23.60;93.60
909;DHT22;441;51.192;6.788;2022-09-09T15:36:17;23.60;93.70
909;DHT22;441;51.192;6.788;2022-09-09T15:38:44;23.70;93.90
909;DHT22;441;51.192;6.788;2022-09-09T15:41:12;23.70;94.20
909;DHT22;441;51.192;6.788;2022-09-09T15:43:43;23.70;94.10
909;DHT22;441;51.192;6.788;2022-09-09T15:46:23;23.70;94.50
909;DHT22;441;51.192;6.788;2022-09-09T15:48:53;23.70;95.00
909;DHT22;441;51.192;6.788;2022-09-09T15:51:21;23.70;94.90
909;DHT22;441;51.192;6.788;2022-09-09T15:53:48;23.70;95.40
909;DHT22;441;51.192;6.788;2022-09-09T15:56:15;23.60;95.80
909;DHT22;441;51.192;6.788;2022-09-09T15:58:42;23.60;96.70
909;DHT22;441;51.192;6.788;2022-09-09T16:01:10;23.60;96.90
909;DHT22;441;51.192;6.788;2022-09-09T16:03:39;23.60;97.40
909;DHT22;441;51.192;6.788;2022-09-09T16:06:08;23.60;97.10
909;DHT22;441;51.192;6.788;2022-09-09T16:08:37;23.60;97.10
909;DHT22;441;51.192;6.788;2022-09-09T16:11:05;23.60;97.50
909;DHT22;441;51.192;6.788;2022-09-09T16:13:35;23.60;97.40
909;DHT22;441;51.192;6.788;2022-09-09T16:16:02;23.70;97.80
909;DHT22;441;51.192;6.788;2022-09-09T16:18:34;23.70;98.00
909;DHT22;441;51.192;6.788;2022-09-09T16:21:02;23.60;98.00
909;DHT22;441;51.192;6.788;2022-09-09T16:23:32;23.70;98.30
909;DHT22;441;51.192;6.788;2022-09-09T16:25:59;23.70;98.70
909;DHT22;441;51.192;6.788;2022-09-09T16:28:26;23.70;98.70
909;DHT22;441;51.192;6.788;2022-09-09T16:30:53;23.70;99.20
909;DHT22;441;51.192;6.788;2022-09-09T16:33:20;23.60;99.60
909;DHT22;441;51.192;6.788;2022-09-09T16:35:47;23.70;99.40
909;DHT22;441;51.192;6.788;2022-09-09T16:38:15;23.60;99.60
909;DHT22;441;51.192;6.788;2022-09-09T16:40:44;23.70;99.90
909;DHT22;441;51.192;6.788;2022-09-09T16:43:11;23.60;99.80
909;DHT22;441;51.192;6.788;2022-09-09T16:45:42;23.70;99.90
909;DHT22;441;51.192;6.788;2022-09-09T16:48:09;23.60;99.90
909;DHT22;441;51.192;6.788;2022-09-09T16:50:36;23.60;99.90
909;DHT22;441;51.192;6.788;2022-09-09T16:53:03;23.70;99.90
909;DHT22;441;51.192;6.788;2022-09-09T16:55:31;23.70;99.90
909;DHT22;441;51.192;6.788;2022-09-09T16:58:00;23.70;99.90
909;DHT22;441;51.192;6.788;2022-09-09T17:00:27;23.70;99.90